Time;durP1;ratioP1;P1;durP2;ratioP2;P2;SDS_P1;SDS_P2;PMS_P1;PMS_P2;Temp;Humidity;BMP_temperature;BMP_pressure;BME280_temperature;BME280_humidity;BME280_pressure;Samples;Min_cycle;Max_cycle;Signal;HPM_P1;HPM_P2
2021/01/11 00:00:16;;;;;;;4.55;4.15;;;9.10;99.90;;;;;;4950850;29;20234;-31
2021/01/11 00:02:46;;;;;;;5.40;4.93;;;9.00;99.90;;;;;;4951489;29;20193;-30
2021/01/11 00:05:16;;;;;;;5.75;5.18;;;8.90;99.90;;;;;;4951518;29;20210;-29
2021/01/11 00:07:47;;;;;;;5.30;4.80;;;8.90;99.90;;;;;;4951842;29;20242;-32
2021/01/11 00:10:17;;;;;;;6.60;5.90;;;8.80;99.90;;;;;;4951329;29;20201;-31
2021/01/11 00:12:48;;;;;;;5.30;4.55;;;8.70;99.90;;;;;;4951127;29;20213;-29
2021/01/11 00:15:18;;;;;;;6.35;5.75;;;8.80;99.90;;;;;;4950878;29;20686;-34
2021/01/11 00:17:49;;;;;;;5.88;5.00;;;8.80;99.90;;;;;;4951477;29;20256;-34
2021/01/11 00:20:20;;;;;;;5.05;4.55;;;8.60;99.90;;;;;;4951323;29;20190;-31
2021/01/11 00:22:50;;;;;;;6.88;4.40;;;8.60;99.90;;;;;;4951244;29;20190;-31
2021/01/11 00:25:20;;;;;;;5.05;4.35;;;8.50;99.90;;;;;;4951334;29;20253;-31
2021/01/11 00:27:52;;;;;;;4.57;4.10;;;8.50;99.90;;;;;;4951219;29;20225;-31
2021/01/11 00:30:23;;;;;;;4.50;4.10;;;8.40;99.90;;;;;;4950491;29;20249;-28
2021/01/11 00:32:53;;;;;;;4.38;3.97;;;8.30;99.90;;;;;;4951252;29;20201;-32
2021/01/11 00:35:24;;;;;;;5.13;4.38;;;8.30;99.90;;;;;;4952272;28;20272;-28
2021/01/11 00:37:54;;;;;;;5.25;4.07;;;8.30;99.90;;;;;;4954876;29;20258;-31
2021/01/11 00:40:24;;;;;;;5.07;4.60;;;8.30;99.90;;;;;;4954406;29;20209;-30
2021/01/11 00:42:55;;;;;;;5.45;4.95;;;8.20;99.90;;;;;;4954270;29;20275;-29
2021/01/11 00:45:25;;;;;;;4.53;4.15;;;8.20;99.90;;;;;;4953959;29;20205;-33
2021/01/11 00:47:55;;;;;;;5.88;5.28;;;8.10;99.90;;;;;;4954461;29;20241;-32
2021/01/11 00:50:26;;;;;;;4.70;4.13;;;8.20;99.90;;;;;;4954387;29;20216;-32
2021/01/11 00:52:56;;;;;;;5.38;4.90;;;8.20;99.90;;;;;;4954635;29;20268;-33
2021/01/11 00:55:26;;;;;;;6.47;5.00;;;8.20;99.90;;;;;;4954275;29;20213;-30
2021/01/11 00:57:57;;;;;;;5.43;4.93;;;8.30;99.90;;;;;;4954323;29;20201;-33
2021/01/11 01:00:27;;;;;;;6.65;5.05;;;8.20;99.90;;;;;;4953828;29;20588;-31
2021/01/11 01:03:03;;;;;;;6.50;5.82;;;8.20;99.90;;;;;;4954585;29;20538;-28
2021/01/11 01:05:37;;;;;;;6.28;5.68;;;8.20;99.90;;;;;;4954930;29;20189;-27
2021/01/11 01:08:07;;;;;;;4.90;4.50;;;8.10;99.90;;;;;;4954239;29;20217;-28
2021/01/11 01:10:37;;;;;;;4.88;4.47;;;8.20;99.90;;;;;;4954724;29;20216;-32
2021/01/11 01:13:09;;;;;;;7.35;4.82;;;8.20;99.90;;;;;;4954102;29;20224;-33
2021/01/11 01:15:39;;;;;;;5.72;5.15;;;8.20;99.90;;;;;;4953927;29;20215;-30
2021/01/11 01:18:09;;;;;;;5.57;5.00;;;8.30;99.90;;;;;;4954323;29;20198;-32
2021/01/11 01:20:39;;;;;;;6.80;5.78;;;8.40;99.90;;;;;;4954632;29;20548;-30
2021/01/11 01:23:09;;;;;;;995.55;165.13;;;8.40;99.90;;;;;;4953862;29;20213;-29
2021/01/11 01:25:40;;;;;;;6.20;5.60;;;8.60;99.90;;;;;;4954081;29;20590;-34
2021/01/11 01:28:11;;;;;;;13.07;11.88;;;8.50;99.90;;;;;;4953817;29;20229;-32
2021/01/11 01:30:41;;;;;;;13.05;11.77;;;8.60;99.90;;;;;;4953559;29;20209;-30
2021/01/11 01:33:11;;;;;;;10.43;9.43;;;8.60;99.90;;;;;;4953810;29;20209;-31
2021/01/11 01:35:41;;;;;;;12.65;10.65;;;8.50;99.90;;;;;;4954013;29;20216;-30
2021/01/11 01:38:12;;;;;;;12.63;11.35;;;8.50;99.90;;;;;;4953689;29;20209;-31
2021/01/11 01:40:45;;;;;;;12.85;11.50;;;8.70;99.90;;;;;;4953836;29;20207;-30
2021/01/11 01:43:16;;;;;;;14.98;13.48;;;8.70;99.90;;;;;;4953395;29;20224;-31
2021/01/11 01:45:46;;;;;;;12.70;11.40;;;8.60;99.90;;;;;;4952995;28;20197;-31
2021/01/11 01:48:17;;;;;;;12.75;10.95;;;8.60;99.90;;;;;;4953610;29;20277;-30
2021/01/11 01:50:47;;;;;;;14.40;13.00;;;8.60;99.90;;;;;;4953582;29;20196;-30
2021/01/11 01:53:17;;;;;;;13.57;12.20;;;8.70;99.90;;;;;;4953339;29;20310;-31
2021/01/11 01:55:47;;;;;;;12.45;11.30;;;8.70;99.90;;;;;;4953741;29;20198;-28
2021/01/11 01:58:20;;;;;;;11.85;10.70;;;8.60;99.90;;;;;;4953495;29;20562;-29
2021/01/11 02:00:50;;;;;;;12.25;11.15;;;8.70;99.90;;;;;;4952860;29;20207;-29
2021/01/11 02:03:21;;;;;;;11.00;9.70;;;8.80;99.90;;;;;;4953304;29;20193;-31
2021/01/11 02:05:51;;;;;;;9.80;9.00;;;8.80;99.90;;;;;;4953327;29;20956;-29
2021/01/11 02:08:28;;;;;;;322.92;57.20;;;8.90;99.90;;;;;;4953224;29;20700;-28
2021/01/11 02:11:11;;;;;;;8.20;7.50;;;8.90;99.90;;;;;;4952864;29;20732;-31
2021/01/11 02:13:55;;;;;;;8.70;7.90;;;8.80;99.90;;;;;;4953408;29;20201;-33
2021/01/11 02:16:32;;;;;;;8.60;7.80;;;8.80;99.90;;;;;;4952388;29;20251;-30
2021/01/11 02:19:54;;;;;;;7.55;6.88;;;8.80;99.90;;;;;;4952942;29;20189;-30
2021/01/11 02:22:29;;;;;;;8.07;7.38;;;8.70;99.90;;;;;;4952898;29;20197;-31
2021/01/11 02:25:30;;;;;;;8.00;7.40;;;8.70;99.90;;;;;;4952937;29;20209;-31
2021/01/11 02:28:01;;;;;;;7.35;6.65;;;8.70;99.90;;;;;;4952537;29;20221;-30
2021/01/11 02:30:38;;;;;;;7.97;7.15;;;8.70;99.90;;;;;;4952353;29;20277;-29
2021/01/11 02:33:09;;;;;;;7.47;6.75;;;8.70;99.90;;;;;;4952787;29;20626;-32
2021/01/11 02:36:03;;;;;;;7.28;6.68;;;8.70;99.90;;;;;;4952709;29;20278;-31
2021/01/11 02:38:34;;;;;;;7.50;6.80;;;8.80;99.90;;;;;;4952805;29;20204;-32
2021/01/11 02:41:04;;;;;;;8.30;7.53;;;8.70;99.90;;;;;;4952304;29;20249;-32
2021/01/11 02:43:34;;;;;;;7.18;6.57;;;8.60;99.90;;;;;;4952569;29;20198;-29
2021/01/11 02:46:06;;;;;;;13.85;8.57;;;8.60;99.90;;;;;;4952152;29;20317;-30
2021/01/11 02:48:41;;;;;;;8.68;7.88;;;8.70;99.90;;;;;;4952410;29;20202;-28
2021/01/11 02:51:21;;;;;;;70.38;17.17;;;8.70;99.90;;;;;;4952328;29;20350;-29
2021/01/11 02:54:08;;;;;;;10.10;9.20;;;8.60;99.90;;;;;;4952385;29;20263;-31
2021/01/11 02:56:45;;;;;;;8.63;7.82;;;8.60;99.90;;;;;;4952266;29;20210;-29
2021/01/11 02:59:21;;;;;;;7.68;7.07;;;8.60;99.90;;;;;;4951054;28;20558;-33
2021/01/11 03:01:57;;;;;;;7.20;6.55;;;8.40;99.90;;;;;;4952153;29;20202;-32
2021/01/11 03:04:28;;;;;;;7.28;6.70;;;8.30;99.90;;;;;;4952221;29;20275;-30
2021/01/11 03:07:00;;;;;;;8.88;8.05;;;8.20;99.90;;;;;;4951946;29;20248;-31
2021/01/11 03:09:30;;;;;;;10.52;9.57;;;8.30;99.90;;;;;;4952043;29;20190;-29
2021/01/11 03:12:01;;;;;;;19.10;17.20;;;8.20;99.90;;;;;;4951646;29;20256;-30
2021/01/11 03:14:31;;;;;;;19.40;17.50;;;8.10;99.90;;;;;;4951388;29;20243;-31
2021/01/11 03:17:03;;;;;;;18.27;16.58;;;8.10;99.90;;;;;;4952238;29;20219;-36
2021/01/11 03:19:33;;;;;;;20.90;18.98;;;8.10;99.90;;;;;;4952003;29;20203;-32
2021/01/11 03:22:05;;;;;;;17.15;15.45;;;8.20;99.90;;;;;;4951795;29;20193;-32
2021/01/11 03:24:35;;;;;;;12.45;10.43;;;8.20;99.90;;;;;;4952009;29;20641;-28
2021/01/11 03:27:06;;;;;;;9.80;8.80;;;8.20;99.90;;;;;;4951725;29;20291;-32
2021/01/11 03:29:36;;;;;;;9.30;8.43;;;8.20;99.90;;;;;;4951280;29;20248;-31
2021/01/11 03:32:07;;;;;;;9.90;8.88;;;8.20;99.90;;;;;;4951822;29;20634;-30
2021/01/11 03:34:37;;;;;;;8.68;7.88;;;8.20;99.90;;;;;;4951732;29;20189;-33
2021/01/11 03:37:08;;;;;;;9.80;8.90;;;8.20;99.90;;;;;;4951667;29;20213;-32
2021/01/11 03:39:38;;;;;;;11.93;10.80;;;8.40;99.90;;;;;;4951741;29;20205;-30
2021/01/11 03:42:08;;;;;;;15.57;13.98;;;8.30;99.90;;;;;;4952102;29;20596;-31
2021/01/11 03:44:38;;;;;;;14.63;13.18;;;8.20;99.90;;;;;;4951255;29;20209;-31
2021/01/11 03:47:09;;;;;;;11.80;10.70;;;8.20;99.90;;;;;;4951572;29;20288;-32
2021/01/11 03:49:40;;;;;;;12.13;10.98;;;8.10;99.90;;;;;;4952037;29;20221;-32
2021/01/11 03:52:10;;;;;;;10.63;9.63;;;8.00;99.90;;;;;;4951768;29;20241;-32
2021/01/11 03:54:40;;;;;;;10.10;9.20;;;7.90;99.90;;;;;;4951514;29;20237;-30
2021/01/11 03:57:10;;;;;;;9.43;8.52;;;7.80;99.90;;;;;;4951437;29;20200;-32
2021/01/11 03:59:45;;;;;;;10.38;9.38;;;7.80;99.90;;;;;;4951058;29;20212;-29
2021/01/11 04:02:19;;;;;;;10.63;9.63;;;7.70;99.90;;;;;;4951294;29;20684;-34
2021/01/11 04:04:49;;;;;;;10.18;9.07;;;7.80;99.90;;;;;;4951584;29;20303;-31
2021/01/11 04:07:19;;;;;;;11.05;10.05;;;7.70;99.90;;;;;;4951496;29;20306;-31
2021/01/11 04:09:49;;;;;;;9.85;8.95;;;7.50;99.90;;;;;;4953501;28;20205;-32
2021/01/11 04:12:19;;;;;;;9.18;8.27;;;7.40;99.90;;;;;;4954933;29;20208;-35
2021/01/11 04:14:49;;;;;;;9.90;8.90;;;7.40;99.90;;;;;;4954745;29;20205;-34
2021/01/11 04:17:23;;;;;;;665.55;120.68;;;7.40;99.90;;;;;;4955180;29;20249;-34
2021/01/11 04:20:00;;;;;;;1637.97;300.80;;;7.50;99.90;;;;;;4955511;29;20220;-28
2021/01/11 04:22:32;;;;;;;682.17;137.90;;;7.70;99.90;;;;;;4955183;29;20197;-31
2021/01/11 04:25:02;;;;;;;21.13;18.02;;;7.60;99.90;;;;;;4955235;29;20233;-30
2021/01/11 04:27:32;;;;;;;18.05;16.15;;;7.30;99.90;;;;;;4954833;29;20308;-32
2021/01/11 04:30:02;;;;;;;16.05;14.38;;;7.10;99.90;;;;;;4954569;29;20279;-33
2021/01/11 04:32:35;;;;;;;16.65;14.65;;;7.00;99.90;;;;;;4954985;29;20252;-30
2021/01/11 04:35:08;;;;;;;14.27;12.98;;;6.90;99.90;;;;;;4955051;29;20196;-30
2021/01/11 04:37:39;;;;;;;14.63;13.18;;;6.90;99.90;;;;;;4954931;29;20197;-31
2021/01/11 04:40:13;;;;;;;15.52;13.88;;;6.90;99.90;;;;;;4954678;29;20228;-30
2021/01/11 04:42:51;;;;;;;15.23;13.73;;;7.00;99.90;;;;;;4954459;29;20229;-31
2021/01/11 04:45:24;;;;;;;15.52;13.77;;;7.10;99.90;;;;;;4954332;29;20197;-30
2021/01/11 04:47:56;;;;;;;14.85;13.35;;;7.00;99.90;;;;;;4954842;29;20259;-31
2021/01/11 04:50:27;;;;;;;14.05;12.65;;;7.00;99.90;;;;;;4954591;29;20626;-28
2021/01/11 04:52:57;;;;;;;14.13;12.80;;;7.10;99.90;;;;;;4952997;29;20241;-30
2021/01/11 04:55:27;;;;;;;14.10;12.65;;;7.00;99.90;;;;;;4935796;29;20202;-29
2021/01/11 04:57:59;;;;;;;185.50;40.63;;;6.90;99.90;;;;;;4935294;29;20481;-28
2021/01/11 05:00:31;;;;;;;14.02;12.65;;;6.90;99.90;;;;;;4934783;29;20195;-31
2021/01/11 05:03:04;;;;;;;13.10;11.70;;;7.00;99.90;;;;;;4935503;29;20197;-32
2021/01/11 05:05:35;;;;;;;1999.90;571.25;;;7.00;99.90;;;;;;4935573;29;20606;-31
2021/01/11 05:08:05;;;;;;;13.43;12.05;;;7.10;99.90;;;;;;4935460;29;20769;-28
2021/01/11 05:10:37;;;;;;;14.30;11.15;;;7.10;99.90;;;;;;4935321;29;20190;-27
2021/01/11 05:13:12;;;;;;;11.55;10.30;;;7.00;99.90;;;;;;4934925;29;20273;-28
2021/01/11 05:15:43;;;;;;;11.57;10.35;;;6.80;99.90;;;;;;4934698;29;20582;-30
2021/01/11 05:18:18;;;;;;;10.40;9.40;;;6.80;99.90;;;;;;4934965;29;20198;-30
2021/01/11 05:20:49;;;;;;;11.95;10.75;;;6.70;99.90;;;;;;4934687;29;20248;-28
2021/01/11 05:23:19;;;;;;;11.50;10.32;;;6.60;99.90;;;;;;4935242;29;20602;-29
2021/01/11 05:25:49;;;;;;;11.65;10.45;;;6.60;99.90;;;;;;4934877;29;20203;-27
2021/01/11 05:28:20;;;;;;;12.60;10.68;;;6.60;99.90;;;;;;4935117;29;20720;-28
2021/01/11 05:30:51;;;;;;;11.65;10.50;;;6.60;99.90;;;;;;4934358;29;20198;-34
2021/01/11 05:33:24;;;;;;;10.55;9.45;;;6.60;99.90;;;;;;4934629;29;20190;-29
2021/01/11 05:36:05;;;;;;;10.85;9.75;;;6.50;99.90;;;;;;4934949;29;20209;-33
2021/01/11 05:38:46;;;;;;;10.40;9.15;;;6.50;99.90;;;;;;4934996;29;20281;-30
2021/01/11 05:41:18;;;;;;;9.18;8.27;;;6.50;99.90;;;;;;4934047;29;20419;-31
2021/01/11 05:43:48;;;;;;;10.10;9.20;;;6.40;99.90;;;;;;4948531;29;20626;-30
2021/01/11 05:46:26;;;;;;;11.52;10.50;;;6.40;99.90;;;;;;4952925;29;20331;-34
2021/01/11 05:49:02;;;;;;;10.98;9.18;;;6.40;99.90;;;;;;4953665;29;20222;-29
2021/01/11 05:51:33;;;;;;;9.93;8.93;;;6.30;99.90;;;;;;4953329;29;20193;-32
2021/01/11 05:54:04;;;;;;;9.80;8.90;;;6.30;99.90;;;;;;4953662;29;20267;-30
2021/01/11 05:56:55;;;;;;;10.70;9.57;;;6.30;99.90;;;;;;4953181;29;20638;-30
2021/01/11 05:59:25;;;;;;;10.27;9.23;;;6.30;99.90;;;;;;4952780;29;20197;-30
2021/01/11 06:02:02;;;;;;;10.77;9.10;;;6.30;99.90;;;;;;4953688;29;20218;-31
2021/01/11 06:04:34;;;;;;;11.50;9.77;;;6.40;99.90;;;;;;4953293;29;20665;-31
2021/01/11 06:07:04;;;;;;;11.25;10.15;;;6.40;99.90;;;;;;4953364;29;20213;-29
2021/01/11 06:09:37;;;;;;;9.18;8.27;;;6.40;99.90;;;;;;4953341;29;20197;-30
2021/01/11 06:12:10;;;;;;;9.73;8.70;;;6.40;99.90;;;;;;4952859;29;20648;-31
2021/01/11 06:14:41;;;;;;;9.68;8.85;;;6.40;99.90;;;;;;4952605;29;20626;-30
2021/01/11 06:17:11;;;;;;;10.05;9.13;;;6.50;99.90;;;;;;4953069;29;20289;-33
2021/01/11 06:19:42;;;;;;;11.48;10.07;;;6.50;99.90;;;;;;4953101;29;20307;-32
2021/01/11 06:22:13;;;;;;;12.32;9.68;;;6.50;99.90;;;;;;4952985;29;20534;-32
2021/01/11 06:24:43;;;;;;;9.18;8.27;;;6.50;99.90;;;;;;4952953;29;20515;-29
2021/01/11 06:27:18;;;;;;;9.10;8.30;;;6.50;99.90;;;;;;4952708;29;20233;-29
2021/01/11 06:29:48;;;;;;;9.32;8.43;;;6.60;99.90;;;;;;4952341;29;20252;-30
2021/01/11 06:32:21;;;;;;;8.75;8.05;;;6.60;99.90;;;;;;4951917;28;20242;-34
2021/01/11 06:34:54;;;;;;;8.82;8.00;;;6.60;99.90;;;;;;4952698;29;20248;-33
2021/01/11 06:37:25;;;;;;;8.95;8.05;;;6.60;99.90;;;;;;4952874;29;20252;-33
2021/01/11 06:39:59;;;;;;;8.65;7.75;;;6.70;99.90;;;;;;4952966;29;20193;-31
2021/01/11 06:42:30;;;;;;;8.50;7.68;;;6.70;99.90;;;;;;4952115;29;20229;-28
2021/01/11 06:45:05;;;;;;;8.55;7.75;;;6.80;99.90;;;;;;4952405;29;20204;-34
2021/01/11 06:47:36;;;;;;;8.00;7.13;;;6.70;99.90;;;;;;4952421;29;20228;-30
2021/01/11 06:50:10;;;;;;;7.95;7.15;;;6.80;99.90;;;;;;4952403;29;20297;-33
2021/01/11 06:52:40;;;;;;;9.10;7.30;;;6.80;99.90;;;;;;4952612;29;20197;-32
2021/01/11 06:55:14;;;;;;;8.30;7.55;;;6.80;99.90;;;;;;4951904;29;20241;-27
2021/01/11 06:57:49;;;;;;;9.70;7.53;;;6.80;99.90;;;;;;4952149;29;20197;-30
2021/01/11 07:00:20;;;;;;;8.77;7.97;;;6.80;99.90;;;;;;4951776;29;20296;-29
2021/01/11 07:02:50;;;;;;;8.50;7.07;;;6.80;99.90;;;;;;4952011;29;20193;-31
2021/01/11 07:05:42;;;;;;;7.95;7.15;;;6.80;99.90;;;;;;4952176;29;20673;-31
2021/01/11 07:08:15;;;;;;;7.97;7.22;;;6.80;99.90;;;;;;4951757;29;20651;-28
2021/01/11 07:10:46;;;;;;;7.75;6.95;;;6.90;99.90;;;;;;4951979;29;20197;-31
2021/01/11 07:13:32;;;;;;;7.40;6.80;;;6.80;99.90;;;;;;4951981;29;20200;-32
2021/01/11 07:16:13;;;;;;;7.32;6.65;;;6.90;99.90;;;;;;4951561;29;20630;-30
2021/01/11 07:18:51;;;;;;;7.15;5.90;;;6.90;99.90;;;;;;4952016;29;20229;-33
2021/01/11 07:21:25;;;;;;;7.75;7.05;;;7.00;99.90;;;;;;4951704;29;20205;-31
2021/01/11 07:23:59;;;;;;;7.32;6.60;;;7.00;99.90;;;;;;4952040;29;20231;-30
2021/01/11 07:26:29;;;;;;;6.90;6.05;;;7.00;99.90;;;;;;4951545;29;20201;-31
2021/01/11 07:29:02;;;;;;;6.80;6.10;;;7.00;99.90;;;;;;4952108;29;20229;-34
2021/01/11 07:31:33;;;;;;;6.53;5.85;;;6.90;99.90;;;;;;4951241;29;20617;-31
2021/01/11 07:34:07;;;;;;;7.10;6.50;;;7.00;99.90;;;;;;4952006;29;20201;-29
2021/01/11 07:36:42;;;;;;;6.60;5.90;;;6.90;99.90;;;;;;4951692;29;20253;-32
2021/01/11 07:39:17;;;;;;;6.85;6.25;;;6.90;99.90;;;;;;4951760;29;20241;-30
2021/01/11 07:41:49;;;;;;;6.82;6.07;;;7.00;99.90;;;;;;4951416;29;20232;-32
2021/01/11 07:44:21;;;;;;;7.20;6.47;;;7.10;99.90;;;;;;4950681;28;20193;-30
2021/01/11 07:46:56;;;;;;;6.57;5.97;;;7.10;99.90;;;;;;4951660;29;20224;-32
2021/01/11 07:49:28;;;;;;;7.05;6.45;;;7.00;99.90;;;;;;4951361;29;20494;-29
2021/01/11 07:52:06;;;;;;;7.75;6.95;;;7.00;99.90;;;;;;4951642;29;20198;-30
2021/01/11 07:54:36;;;;;;;7.10;6.40;;;6.90;99.90;;;;;;4951435;29;20232;-30
2021/01/11 07:57:11;;;;;;;6.57;5.97;;;6.90;99.90;;;;;;4951610;29;20194;-32
2021/01/11 07:59:41;;;;;;;7.32;6.65;;;7.00;99.90;;;;;;4950845;29;20201;-31
2021/01/11 08:02:12;;;;;;;5.88;5.35;;;6.90;99.90;;;;;;4951671;29;20285;-31
2021/01/11 08:04:45;;;;;;;5.82;4.93;;;6.90;99.90;;;;;;4951702;29;20197;-29
2021/01/11 08:07:16;;;;;;;5.45;4.95;;;7.00;99.90;;;;;;4951344;29;20253;-28
2021/01/11 08:09:46;;;;;;;5.40;4.80;;;7.00;99.90;;;;;;4951611;29;20189;-32
2021/01/11 08:12:17;;;;;;;5.00;4.50;;;7.10;99.90;;;;;;4951072;29;20205;-29
2021/01/11 08:14:49;;;;;;;5.78;4.88;;;7.10;99.90;;;;;;4951012;29;20202;-28
2021/01/11 08:17:21;;;;;;;5.57;4.90;;;7.20;99.90;;;;;;4951560;29;20611;-27
2021/01/11 08:19:51;;;;;;;4.45;4.07;;;7.30;99.90;;;;;;4951329;29;20197;-31
2021/01/11 08:22:23;;;;;;;6.82;4.53;;;7.30;99.90;;;;;;4951591;29;20654;-31
2021/01/11 08:24:55;;;;;;;6.85;4.55;;;7.20;99.90;;;;;;4951394;29;20216;-31
2021/01/11 08:27:31;;;;;;;4.85;4.50;;;7.20;99.90;;;;;;4951124;29;20193;-28
2021/01/11 08:30:05;;;;;;;4.88;4.18;;;7.20;99.90;;;;;;4950740;29;20201;-28
2021/01/11 08:32:36;;;;;;;4.32;3.92;;;7.30;99.90;;;;;;4951638;29;20487;-29
2021/01/11 08:35:09;;;;;;;5.40;4.38;;;7.20;99.90;;;;;;4951365;29;20197;-29
2021/01/11 08:37:41;;;;;;;4.63;4.22;;;7.30;99.90;;;;;;4951441;29;20268;-30
2021/01/11 08:40:17;;;;;;;4.00;3.60;;;7.30;99.90;;;;;;4951144;29;20201;-29
2021/01/11 08:42:48;;;;;;;4.55;4.15;;;7.40;99.90;;;;;;4951029;29;20243;-27
2021/01/11 08:45:29;;;;;;;4.43;4.03;;;7.40;99.90;;;;;;4950499;29;20197;-31
2021/01/11 08:48:06;;;;;;;4.25;3.85;;;7.40;99.90;;;;;;4951213;29;20232;-30
2021/01/11 08:50:39;;;;;;;4.65;3.92;;;7.50;99.90;;;;;;4951223;29;20194;-31
2021/01/11 08:53:26;;;;;;;4.63;4.05;;;7.50;99.90;;;;;;4950894;29;20202;-28
2021/01/11 08:56:00;;;;;;;4.00;3.53;;;7.50;99.90;;;;;;4951425;28;20596;-30
2021/01/11 08:58:31;;;;;;;3.33;3.10;;;7.40;99.90;;;;;;4954428;29;20193;-30
2021/01/11 09:01:11;;;;;;;3.60;3.30;;;7.40;99.90;;;;;;4941498;29;20214;-29
2021/01/11 09:03:43;;;;;;;3.88;3.50;;;7.50;99.90;;;;;;4935682;29;20210;-30
2021/01/11 09:06:13;;;;;;;4.00;3.65;;;7.50;99.90;;;;;;4935170;29;20198;-30
2021/01/11 09:08:44;;;;;;;3.65;3.33;;;7.40;99.90;;;;;;4935460;29;20240;-33
2021/01/11 09:11:17;;;;;;;3.40;3.10;;;7.30;99.90;;;;;;4934786;29;20210;-28
2021/01/11 09:13:47;;;;;;;4.50;4.10;;;7.30;99.90;;;;;;4935375;29;20221;-30
2021/01/11 09:16:18;;;;;;;3.80;3.50;;;7.20;99.90;;;;;;4934468;29;20217;-27
2021/01/11 09:18:52;;;;;;;4.55;3.33;;;7.20;99.90;;;;;;4935225;29;20293;-28
2021/01/11 09:21:26;;;;;;;3.78;3.42;;;7.10;99.90;;;;;;4934906;29;20247;-31
2021/01/11 09:23:57;;;;;;;4.43;4.03;;;7.00;99.90;;;;;;4935129;29;20667;-32
2021/01/11 09:26:27;;;;;;;4.28;3.88;;;7.00;99.90;;;;;;4934563;29;20733;-28
2021/01/11 09:28:58;;;;;;;3.83;3.38;;;7.00;99.90;;;;;;4935018;29;20236;-30
2021/01/11 09:31:28;;;;;;;3.58;3.28;;;7.10;99.90;;;;;;4934777;29;20553;-31
2021/01/11 09:34:03;;;;;;;3.58;3.28;;;6.90;99.90;;;;;;4935023;29;20276;-30
2021/01/11 09:36:34;;;;;;;4.05;3.65;;;7.00;99.90;;;;;;4935042;29;20198;-31
2021/01/11 09:39:08;;;;;;;3.75;3.45;;;6.90;99.90;;;;;;4935031;29;20200;-32
2021/01/11 09:41:42;;;;;;;3.40;3.10;;;6.90;99.90;;;;;;4934384;29;20240;-33
2021/01/11 09:44:12;;;;;;;3.65;3.35;;;7.00;99.90;;;;;;4934027;29;20201;-27
2021/01/11 09:46:44;;;;;;;4.03;3.30;;;7.00;99.90;;;;;;4934750;29;20213;-31
2021/01/11 09:49:15;;;;;;;4.13;3.72;;;7.10;99.90;;;;;;4938301;29;20348;-27
2021/01/11 09:51:45;;;;;;;3.42;3.13;;;7.10;99.90;;;;;;4953529;29;20194;-27
2021/01/11 09:54:16;;;;;;;5.28;3.70;;;7.10;99.90;;;;;;4953615;29;20609;-30
2021/01/11 09:56:47;;;;;;;3.40;3.20;;;7.20;99.90;;;;;;4953317;29;20239;-31
2021/01/11 09:59:17;;;;;;;2.83;2.63;;;7.30;99.90;;;;;;4952647;29;20641;-27
2021/01/11 10:01:48;;;;;;;3.25;2.95;;;7.30;99.90;;;;;;4953307;29;20196;-27
2021/01/11 10:04:20;;;;;;;3.90;3.60;;;7.30;99.90;;;;;;4953293;29;20225;-32
2021/01/11 10:06:50;;;;;;;3.63;2.88;;;7.30;99.90;;;;;;4952974;28;20200;-31
2021/01/11 10:09:23;;;;;;;4.15;3.05;;;7.20;99.90;;;;;;4952807;29;20696;-28
2021/01/11 10:11:56;;;;;;;3.30;3.05;;;7.20;99.90;;;;;;4952812;29;20198;-31
2021/01/11 10:14:28;;;;;;;3.80;3.40;;;7.20;99.90;;;;;;4952758;29;20202;-30
2021/01/11 10:16:58;;;;;;;3.50;3.20;;;7.20;99.90;;;;;;4952947;29;20201;-30
2021/01/11 10:19:29;;;;;;;3.80;3.40;;;7.20;99.90;;;;;;4953109;29;20209;-27
2021/01/11 10:22:00;;;;;;;3.67;3.38;;;7.20;99.90;;;;;;4952725;29;20189;-29
2021/01/11 10:24:31;;;;;;;3.20;2.90;;;7.30;99.90;;;;;;4952822;29;20696;-29
2021/01/11 10:27:02;;;;;;;3.05;2.60;;;7.40;99.90;;;;;;4952449;29;20193;-29
2021/01/11 10:29:32;;;;;;;3.10;2.90;;;7.50;99.90;;;;;;4951776;29;20932;-34
2021/01/11 10:32:02;;;;;;;3.50;3.20;;;7.50;99.90;;;;;;4952421;29;20205;-31
2021/01/11 10:34:32;;;;;;;3.92;3.60;;;7.60;99.90;;;;;;4952676;29;20193;-32
2021/01/11 10:37:02;;;;;;;3.55;3.22;;;7.60;99.90;;;;;;4952762;29;20296;-29
2021/01/11 10:39:33;;;;;;;3.65;3.20;;;7.40;99.90;;;;;;4940386;29;20217;-29
2021/01/11 10:42:04;;;;;;;3.45;3.15;;;7.40;99.90;;;;;;4933039;29;20222;-27
2021/01/11 10:44:34;;;;;;;3.22;2.80;;;7.30;99.90;;;;;;4933033;29;20642;-29
2021/01/11 10:47:04;;;;;;;2.97;2.78;;;7.30;99.90;;;;;;4933930;29;20546;-31
2021/01/11 10:49:35;;;;;;;2.78;2.58;;;7.20;99.90;;;;;;4933406;29;20233;-31
2021/01/11 10:52:06;;;;;;;2.92;2.65;;;7.20;99.90;;;;;;4933986;29;20205;-29
2021/01/11 10:54:38;;;;;;;2.65;2.53;;;7.20;99.90;;;;;;4933581;29;20788;-30
2021/01/11 10:57:08;;;;;;;2.67;2.45;;;7.30;99.90;;;;;;4933253;29;20198;-28
2021/01/11 10:59:38;;;;;;;3.10;2.80;;;7.30;99.90;;;;;;4932944;29;20217;-29
2021/01/11 11:02:10;;;;;;;3.45;3.15;;;7.40;99.90;;;;;;4933216;29;20214;-29
2021/01/11 11:04:42;;;;;;;3.33;3.03;;;7.30;99.90;;;;;;4933391;29;20591;-29
2021/01/11 11:07:12;;;;;;;3.08;2.65;;;7.30;99.90;;;;;;4933265;29;20213;-28
2021/01/11 11:09:44;;;;;;;2.78;2.58;;;7.20;99.90;;;;;;4933051;29;20237;-32
2021/01/11 11:12:14;;;;;;;3.28;3.05;;;7.20;99.90;;;;;;4932852;29;20194;-32
2021/01/11 11:14:44;;;;;;;3.40;3.10;;;7.20;99.90;;;;;;4932525;29;20217;-27
2021/01/11 11:17:15;;;;;;;3.30;3.08;;;7.20;99.90;;;;;;4933004;29;20206;-32
2021/01/11 11:19:45;;;;;;;3.20;3.00;;;7.20;99.90;;;;;;4932464;29;20204;-27
2021/01/11 11:22:15;;;;;;;3.10;2.85;;;7.30;99.90;;;;;;4932863;29;20221;-28
2021/01/11 11:24:46;;;;;;;3.38;3.08;;;7.20;99.90;;;;;;4932801;29;20630;-33
2021/01/11 11:27:17;;;;;;;3.28;3.05;;;7.20;99.90;;;;;;4932745;29;20198;-29
2021/01/11 11:29:48;;;;;;;3.03;2.83;;;7.20;99.90;;;;;;4947950;29;20225;-31
2021/01/11 11:32:18;;;;;;;3.25;2.95;;;7.10;99.90;;;;;;4951729;29;20578;-31
2021/01/11 11:34:48;;;;;;;2.95;2.75;;;7.10;99.90;;;;;;4952043;29;20781;-29
2021/01/11 11:37:20;;;;;;;3.40;3.10;;;7.10;99.90;;;;;;4951563;29;20626;-30
2021/01/11 11:39:52;;;;;;;4.18;3.15;;;7.00;99.90;;;;;;4952145;29;20201;-30
2021/01/11 11:42:22;;;;;;;3.53;3.33;;;7.00;99.90;;;;;;4951873;29;20779;-31
2021/01/11 11:44:52;;;;;;;2.97;2.67;;;7.00;99.90;;;;;;4951350;29;20577;-33
2021/01/11 11:47:22;;;;;;;4.18;3.60;;;7.10;99.90;;;;;;4951988;29;20285;-29
2021/01/11 11:50:02;;;;;;;3.05;2.75;;;7.10;99.90;;;;;;4951965;29;20217;-28
2021/01/11 11:52:32;;;;;;;3.50;2.83;;;7.20;99.90;;;;;;4951740;29;20208;-32
2021/01/11 11:55:05;;;;;;;4.07;3.67;;;7.30;99.90;;;;;;4951791;29;20249;-28
2021/01/11 11:57:35;;;;;;;2.85;2.55;;;7.40;99.90;;;;;;4951739;29;20626;-28
2021/01/11 12:00:06;;;;;;;2.38;2.17;;;7.30;99.90;;;;;;4951400;29;20275;-30
2021/01/11 12:02:36;;;;;;;3.10;2.83;;;7.30;99.90;;;;;;4952061;29;20220;-29
2021/01/11 12:05:09;;;;;;;2.90;2.67;;;7.30;99.90;;;;;;4951978;29;20190;-28
2021/01/11 12:07:39;;;;;;;3.15;2.85;;;7.20;99.90;;;;;;4951958;29;20201;-29
2021/01/11 12:10:12;;;;;;;2.88;2.55;;;7.10;99.90;;;;;;4952076;29;20215;-30
2021/01/11 12:12:44;;;;;;;3.50;3.10;;;7.20;99.90;;;;;;4951703;29;20220;-29
2021/01/11 12:15:15;;;;;;;2.97;2.78;;;7.20;99.90;;;;;;4951244;29;20722;-30
2021/01/11 12:17:47;;;;;;;2.60;2.40;;;7.30;99.90;;;;;;4951806;29;20213;-30
2021/01/11 12:20:17;;;;;;;3.25;2.95;;;7.30;99.90;;;;;;4951620;29;20217;-27
2021/01/11 12:22:47;;;;;;;2.33;2.22;;;7.30;99.90;;;;;;4951941;29;20194;-29
2021/01/11 12:25:18;;;;;;;2.70;2.50;;;7.30;99.90;;;;;;4951578;29;20256;-32
2021/01/11 12:27:48;;;;;;;2.85;2.50;;;7.40;99.90;;;;;;4951395;29;20274;-28
2021/01/11 12:30:19;;;;;;;2.97;2.67;;;7.50;99.90;;;;;;4951018;28;20250;-29
2021/01/11 12:32:49;;;;;;;2.50;2.30;;;7.60;99.90;;;;;;4955123;29;20209;-34
2021/01/11 12:35:19;;;;;;;2.85;2.55;;;7.60;99.90;;;;;;4955190;29;20299;-29
2021/01/11 12:37:50;;;;;;;3.58;3.28;;;7.50;99.90;;;;;;4955899;29;20573;-27
2021/01/11 12:40:21;;;;;;;2.38;2.17;;;7.50;99.90;;;;;;4954902;29;20713;-29
2021/01/11 12:42:51;;;;;;;2.30;2.10;;;7.50;99.90;;;;;;4955011;29;20256;-30
2021/01/11 12:45:22;;;;;;;2.60;2.40;;;7.50;99.90;;;;;;4954373;29;20209;-29
2021/01/11 12:47:52;;;;;;;2.58;2.38;;;7.50;99.90;;;;;;4955158;29;20194;-28
2021/01/11 12:50:22;;;;;;;2.75;2.55;;;7.50;99.90;;;;;;4954574;29;20276;-31
2021/01/11 12:52:52;;;;;;;3.80;2.50;;;7.40;99.90;;;;;;4955702;29;20557;-28
2021/01/11 12:55:23;;;;;;;2.58;2.13;;;7.50;99.90;;;;;;4954474;29;20303;-34
2021/01/11 12:57:53;;;;;;;2.60;2.40;;;7.40;99.90;;;;;;4954811;29;20197;-27
2021/01/11 13:00:24;;;;;;;3.25;2.80;;;7.30;99.90;;;;;;4954098;29;20232;-32
2021/01/11 13:02:54;;;;;;;2.70;2.50;;;7.40;99.90;;;;;;4954902;29;20649;-30
2021/01/11 13:05:24;;;;;;;2.50;2.30;;;7.40;99.90;;;;;;4954584;29;20684;-28
2021/01/11 13:07:54;;;;;;;2.97;2.40;;;7.40;99.90;;;;;;4954578;29;20216;-28
2021/01/11 13:10:25;;;;;;;2.95;2.58;;;7.40;99.90;;;;;;4954594;29;20304;-32
2021/01/11 13:12:56;;;;;;;2.50;2.30;;;7.50;99.90;;;;;;4954337;29;20198;-32
2021/01/11 13:15:26;;;;;;;2.30;2.17;;;7.50;99.90;;;;;;4953753;29;20268;-31
2021/01/11 13:17:56;;;;;;;2.70;2.50;;;7.50;99.90;;;;;;4954429;29;20610;-31